sensor_id;sensor_type;location;lat;lon;timestamp;P1;durP1;ratioP1;P2;durP2;ratioP2
8094;SDS011;4090;49.270;8.696;2023-07-13T00:00:02;4.43;;;1.40;;
8094;SDS011;4090;49.270;8.696;2023-07-13T00:02:50;2.28;;;1.50;;
8094;SDS011;4090;49.270;8.696;2023-07-13T00:05:33;3.30;;;1.35;;
8094;SDS011;4090;49.270;8.696;2023-07-13T00:08:15;2.75;;;1.60;;
8094;SDS011;4090;49.270;8.696;2023-07-13T00:10:57;1.92;;;1.40;;
8094;SDS011;4090;49.270;8.696;2023-07-13T00:13:39;2.55;;;1.50;;
8094;SDS011;4090;49.270;8.696;2023-07-13T00:16:21;5.43;;;1.67;;
8094;SDS011;4090;49.270;8.696;2023-07-13T00:19:04;3.63;;;1.52;;
8094;SDS011;4090;49.270;8.696;2023-07-13T00:21:47;3.88;;;1.50;;
8094;SDS011;4090;49.270;8.696;2023-07-13T00:24:29;2.92;;;1.30;;
8094;SDS011;4090;49.270;8.696;2023-07-13T00:27:11;3.60;;;1.35;;
8094;SDS011;4090;49.270;8.696;2023-07-13T00:29:53;4.68;;;1.55;;
8094;SDS011;4090;49.270;8.696;2023-07-13T00:32:35;1.90;;;1.40;;
8094;SDS011;4090;49.270;8.696;2023-07-13T00:35:19;3.35;;;1.50;;
8094;SDS011;4090;49.270;8.696;2023-07-13T00:38:00;1.90;;;1.42;;
8094;SDS011;4090;49.270;8.696;2023-07-13T00:40:43;4.90;;;1.70;;
8094;SDS011;4090;49.270;8.696;2023-07-13T00:43:25;4.07;;;2.10;;
8094;SDS011;4090;49.270;8.696;2023-07-13T00:46:11;3.50;;;1.65;;
8094;SDS011;4090;49.270;8.696;2023-07-13T00:48:59;1.95;;;1.50;;
8094;SDS011;4090;49.270;8.696;2023-07-13T00:51:48;3.08;;;1.50;;
8094;SDS011;4090;49.270;8.696;2023-07-13T00:58:54;2.85;;;1.42;;
8094;SDS011;4090;49.270;8.696;2023-07-13T01:01:38;3.67;;;1.40;;
8094;SDS011;4090;49.270;8.696;2023-07-13T01:04:20;2.63;;;1.80;;
8094;SDS011;4090;49.270;8.696;2023-07-13T01:07:06;2.72;;;1.50;;
8094;SDS011;4090;49.270;8.696;2023-07-13T01:09:48;5.05;;;1.88;;
8094;SDS011;4090;49.270;8.696;2023-07-13T01:12:33;3.33;;;1.60;;
8094;SDS011;4090;49.270;8.696;2023-07-13T01:18:16;2.97;;;1.70;;
8094;SDS011;4090;49.270;8.696;2023-07-13T01:21:02;3.67;;;1.70;;
8094;SDS011;4090;49.270;8.696;2023-07-13T01:23:46;3.95;;;1.70;;
8094;SDS011;4090;49.270;8.696;2023-07-13T01:26:28;3.17;;;1.50;;
8094;SDS011;4090;49.270;8.696;2023-07-13T01:29:10;6.15;;;1.63;;
8094;SDS011;4090;49.270;8.696;2023-07-13T01:31:53;2.13;;;1.50;;
8094;SDS011;4090;49.270;8.696;2023-07-13T01:34:35;2.47;;;1.50;;
8094;SDS011;4090;49.270;8.696;2023-07-13T01:37:18;3.30;;;1.50;;
8094;SDS011;4090;49.270;8.696;2023-07-13T01:40:00;3.45;;;1.95;;
8094;SDS011;4090;49.270;8.696;2023-07-13T01:42:44;2.00;;;1.52;;
8094;SDS011;4090;49.270;8.696;2023-07-13T01:45:26;1.92;;;1.60;;
8094;SDS011;4090;49.270;8.696;2023-07-13T01:48:08;8.55;;;2.00;;
8094;SDS011;4090;49.270;8.696;2023-07-13T01:50:51;4.22;;;1.50;;
8094;SDS011;4090;49.270;8.696;2023-07-13T01:53:34;2.30;;;1.55;;
8094;SDS011;4090;49.270;8.696;2023-07-13T01:56:16;4.93;;;1.80;;
8094;SDS011;4090;49.270;8.696;2023-07-13T01:58:58;3.83;;;1.70;;
8094;SDS011;4090;49.270;8.696;2023-07-13T02:01:40;2.35;;;1.60;;
8094;SDS011;4090;49.270;8.696;2023-07-13T02:04:22;1.92;;;1.60;;
8094;SDS011;4090;49.270;8.696;2023-07-13T02:07:04;4.97;;;1.60;;
8094;SDS011;4090;49.270;8.696;2023-07-13T02:09:47;1.77;;;1.67;;
8094;SDS011;4090;49.270;8.696;2023-07-13T02:12:29;5.40;;;2.25;;
8094;SDS011;4090;49.270;8.696;2023-07-13T02:15:11;2.28;;;1.80;;
8094;SDS011;4090;49.270;8.696;2023-07-13T02:17:53;3.72;;;1.98;;
8094;SDS011;4090;49.270;8.696;2023-07-13T02:24:59;3.08;;;1.95;;
8094;SDS011;4090;49.270;8.696;2023-07-13T02:27:41;3.53;;;2.33;;
8094;SDS011;4090;49.270;8.696;2023-07-13T02:30:23;2.75;;;1.90;;
8094;SDS011;4090;49.270;8.696;2023-07-13T02:33:08;4.63;;;1.75;;
8094;SDS011;4090;49.270;8.696;2023-07-13T02:35:50;8.45;;;1.92;;
8094;SDS011;4090;49.270;8.696;2023-07-13T02:38:32;5.32;;;2.20;;
8094;SDS011;4090;49.270;8.696;2023-07-13T02:41:17;6.95;;;2.00;;
8094;SDS011;4090;49.270;8.696;2023-07-13T02:44:00;4.82;;;1.92;;
8094;SDS011;4090;49.270;8.696;2023-07-13T02:46:43;3.95;;;2.10;;
8094;SDS011;4090;49.270;8.696;2023-07-13T02:49:27;4.40;;;1.95;;
8094;SDS011;4090;49.270;8.696;2023-07-13T02:52:09;3.40;;;1.92;;
8094;SDS011;4090;49.270;8.696;2023-07-13T02:54:51;4.20;;;1.67;;
8094;SDS011;4090;49.270;8.696;2023-07-13T02:57:34;5.93;;;1.67;;
8094;SDS011;4090;49.270;8.696;2023-07-13T03:00:17;3.42;;;1.50;;
8094;SDS011;4090;49.270;8.696;2023-07-13T03:02:59;3.67;;;1.92;;
8094;SDS011;4090;49.270;8.696;2023-07-13T03:05:41;3.10;;;1.70;;
8094;SDS011;4090;49.270;8.696;2023-07-13T03:08:25;3.95;;;1.70;;
8094;SDS011;4090;49.270;8.696;2023-07-13T03:11:08;4.35;;;2.22;;
8094;SDS011;4090;49.270;8.696;2023-07-13T03:13:57;2.85;;;1.70;;
8094;SDS011;4090;49.270;8.696;2023-07-13T03:16:40;2.63;;;1.70;;
8094;SDS011;4090;49.270;8.696;2023-07-13T03:19:24;2.13;;;1.70;;
8094;SDS011;4090;49.270;8.696;2023-07-13T03:22:06;2.22;;;1.83;;
8094;SDS011;4090;49.270;8.696;2023-07-13T03:24:49;5.93;;;1.75;;
8094;SDS011;4090;49.270;8.696;2023-07-13T03:27:30;4.10;;;1.92;;
8094;SDS011;4090;49.270;8.696;2023-07-13T03:30:14;3.28;;;1.80;;
8094;SDS011;4090;49.270;8.696;2023-07-13T03:32:58;2.97;;;1.80;;
8094;SDS011;4090;49.270;8.696;2023-07-13T03:35:40;2.92;;;2.00;;
8094;SDS011;4090;49.270;8.696;2023-07-13T03:38:22;1.77;;;1.67;;
8094;SDS011;4090;49.270;8.696;2023-07-13T03:41:05;6.60;;;1.92;;
8094;SDS011;4090;49.270;8.696;2023-07-13T03:43:47;4.03;;;1.70;;
8094;SDS011;4090;49.270;8.696;2023-07-13T03:46:32;2.38;;;1.80;;
8094;SDS011;4090;49.270;8.696;2023-07-13T03:49:14;2.72;;;1.90;;
8094;SDS011;4090;49.270;8.696;2023-07-13T03:51:56;3.92;;;1.80;;
8094;SDS011;4090;49.270;8.696;2023-07-13T03:54:39;2.08;;;1.65;;
8094;SDS011;4090;49.270;8.696;2023-07-13T03:57:21;2.28;;;1.60;;
8094;SDS011;4090;49.270;8.696;2023-07-13T04:00:04;3.53;;;1.90;;
8094;SDS011;4090;49.270;8.696;2023-07-13T04:02:57;2.55;;;1.77;;
8094;SDS011;4090;49.270;8.696;2023-07-13T04:05:40;4.30;;;1.77;;
8094;SDS011;4090;49.270;8.696;2023-07-13T04:08:22;4.60;;;2.10;;
8094;SDS011;4090;49.270;8.696;2023-07-13T04:11:04;2.97;;;2.15;;
8094;SDS011;4090;49.270;8.696;2023-07-13T04:13:47;5.38;;;2.05;;
8094;SDS011;4090;49.270;8.696;2023-07-13T04:16:29;2.50;;;1.77;;
8094;SDS011;4090;49.270;8.696;2023-07-13T04:19:12;3.10;;;1.80;;
8094;SDS011;4090;49.270;8.696;2023-07-13T04:21:54;2.78;;;1.85;;
8094;SDS011;4090;49.270;8.696;2023-07-13T04:24:36;2.35;;;1.80;;
8094;SDS011;4090;49.270;8.696;2023-07-13T04:27:18;2.63;;;1.90;;
8094;SDS011;4090;49.270;8.696;2023-07-13T04:30:00;3.05;;;2.05;;
8094;SDS011;4090;49.270;8.696;2023-07-13T04:32:42;4.28;;;1.90;;
8094;SDS011;4090;49.270;8.696;2023-07-13T04:35:25;2.97;;;2.00;;
8094;SDS011;4090;49.270;8.696;2023-07-13T04:38:07;2.35;;;2.00;;
8094;SDS011;4090;49.270;8.696;2023-07-13T04:40:51;3.95;;;1.98;;
8094;SDS011;4090;49.270;8.696;2023-07-13T04:43:33;4.68;;;1.83;;
8094;SDS011;4090;49.270;8.696;2023-07-13T04:46:16;4.68;;;1.75;;
8094;SDS011;4090;49.270;8.696;2023-07-13T04:48:59;2.13;;;1.92;;
8094;SDS011;4090;49.270;8.696;2023-07-13T04:51:44;2.25;;;1.95;;
8094;SDS011;4090;49.270;8.696;2023-07-13T04:54:26;5.80;;;2.20;;
8094;SDS011;4090;49.270;8.696;2023-07-13T04:57:08;2.20;;;1.77;;
8094;SDS011;4090;49.270;8.696;2023-07-13T04:59:50;5.90;;;2.08;;
8094;SDS011;4090;49.270;8.696;2023-07-13T05:02:32;2.97;;;2.25;;
8094;SDS011;4090;49.270;8.696;2023-07-13T05:05:15;3.05;;;2.03;;
8094;SDS011;4090;49.270;8.696;2023-07-13T05:07:58;5.72;;;2.58;;
8094;SDS011;4090;49.270;8.696;2023-07-13T05:10:40;6.63;;;2.28;;
8094;SDS011;4090;49.270;8.696;2023-07-13T05:13:22;5.25;;;2.25;;
8094;SDS011;4090;49.270;8.696;2023-07-13T05:16:04;3.92;;;2.03;;
8094;SDS011;4090;49.270;8.696;2023-07-13T05:18:47;5.07;;;2.20;;
8094;SDS011;4090;49.270;8.696;2023-07-13T05:21:29;5.40;;;2.78;;
8094;SDS011;4090;49.270;8.696;2023-07-13T05:24:12;7.40;;;2.58;;
8094;SDS011;4090;49.270;8.696;2023-07-13T05:26:54;5.07;;;2.40;;
8094;SDS011;4090;49.270;8.696;2023-07-13T05:29:36;5.35;;;2.45;;
8094;SDS011;4090;49.270;8.696;2023-07-13T05:32:18;6.10;;;2.50;;
8094;SDS011;4090;49.270;8.696;2023-07-13T05:35:00;4.88;;;2.45;;
8094;SDS011;4090;49.270;8.696;2023-07-13T05:37:43;5.82;;;2.25;;
8094;SDS011;4090;49.270;8.696;2023-07-13T05:40:26;4.72;;;2.45;;
8094;SDS011;4090;49.270;8.696;2023-07-13T05:43:08;5.07;;;2.67;;
8094;SDS011;4090;49.270;8.696;2023-07-13T05:45:51;10.13;;;2.85;;
8094;SDS011;4090;49.270;8.696;2023-07-13T05:48:33;9.27;;;2.90;;
8094;SDS011;4090;49.270;8.696;2023-07-13T05:51:15;6.97;;;3.03;;
8094;SDS011;4090;49.270;8.696;2023-07-13T05:53:57;12.52;;;2.90;;
8094;SDS011;4090;49.270;8.696;2023-07-13T05:56:40;9.00;;;2.60;;
8094;SDS011;4090;49.270;8.696;2023-07-13T05:59:22;7.13;;;2.60;;
8094;SDS011;4090;49.270;8.696;2023-07-13T06:02:05;9.43;;;3.10;;
8094;SDS011;4090;49.270;8.696;2023-07-13T06:04:47;9.77;;;2.60;;
8094;SDS011;4090;49.270;8.696;2023-07-13T06:07:28;8.93;;;2.72;;
8094;SDS011;4090;49.270;8.696;2023-07-13T06:10:11;6.82;;;2.40;;
8094;SDS011;4090;49.270;8.696;2023-07-13T06:12:54;6.10;;;2.63;;
8094;SDS011;4090;49.270;8.696;2023-07-13T06:15:40;7.70;;;2.60;;
8094;SDS011;4090;49.270;8.696;2023-07-13T06:18:22;5.25;;;2.40;;
8094;SDS011;4090;49.270;8.696;2023-07-13T06:21:07;7.45;;;2.58;;
8094;SDS011;4090;49.270;8.696;2023-07-13T06:23:50;6.22;;;2.45;;
8094;SDS011;4090;49.270;8.696;2023-07-13T06:26:34;3.85;;;2.50;;
8094;SDS011;4090;49.270;8.696;2023-07-13T06:29:17;5.07;;;2.30;;
8094;SDS011;4090;49.270;8.696;2023-07-13T06:31:59;5.18;;;2.10;;
8094;SDS011;4090;49.270;8.696;2023-07-13T06:34:41;2.13;;;1.90;;
8094;SDS011;4090;49.270;8.696;2023-07-13T06:37:22;2.85;;;1.95;;
8094;SDS011;4090;49.270;8.696;2023-07-13T06:40:05;4.45;;;2.20;;
8094;SDS011;4090;49.270;8.696;2023-07-13T06:42:47;8.73;;;2.75;;
8094;SDS011;4090;49.270;8.696;2023-07-13T06:45:32;4.57;;;1.90;;
8094;SDS011;4090;49.270;8.696;2023-07-13T06:48:16;4.25;;;2.08;;
8094;SDS011;4090;49.270;8.696;2023-07-13T06:51:00;6.28;;;2.17;;
8094;SDS011;4090;49.270;8.696;2023-07-13T06:53:43;4.15;;;2.45;;
8094;SDS011;4090;49.270;8.696;2023-07-13T06:56:25;3.72;;;2.17;;
8094;SDS011;4090;49.270;8.696;2023-07-13T06:59:07;4.75;;;2.25;;
8094;SDS011;4090;49.270;8.696;2023-07-13T07:01:51;6.20;;;2.20;;
8094;SDS011;4090;49.270;8.696;2023-07-13T07:04:33;3.35;;;2.25;;
8094;SDS011;4090;49.270;8.696;2023-07-13T07:07:14;4.90;;;2.13;;
8094;SDS011;4090;49.270;8.696;2023-07-13T07:09:56;4.32;;;1.95;;
8094;SDS011;4090;49.270;8.696;2023-07-13T07:12:38;4.07;;;1.95;;
8094;SDS011;4090;49.270;8.696;2023-07-13T07:15:20;3.85;;;2.00;;
8094;SDS011;4090;49.270;8.696;2023-07-13T07:18:03;3.15;;;1.85;;
8094;SDS011;4090;49.270;8.696;2023-07-13T07:20:45;3.88;;;2.10;;
8094;SDS011;4090;49.270;8.696;2023-07-13T07:23:27;5.65;;;2.03;;
8094;SDS011;4090;49.270;8.696;2023-07-13T07:26:09;5.95;;;2.42;;
8094;SDS011;4090;49.270;8.696;2023-07-13T07:28:51;4.53;;;1.80;;
8094;SDS011;4090;49.270;8.696;2023-07-13T07:31:33;7.32;;;2.17;;
8094;SDS011;4090;49.270;8.696;2023-07-13T07:34:18;2.67;;;1.67;;
8094;SDS011;4090;49.270;8.696;2023-07-13T07:37:01;3.75;;;2.00;;
8094;SDS011;4090;49.270;8.696;2023-07-13T07:39:43;3.20;;;1.85;;
8094;SDS011;4090;49.270;8.696;2023-07-13T07:42:25;2.03;;;1.50;;
8094;SDS011;4090;49.270;8.696;2023-07-13T07:45:07;5.70;;;1.90;;
8094;SDS011;4090;49.270;8.696;2023-07-13T07:47:51;3.80;;;1.85;;
8094;SDS011;4090;49.270;8.696;2023-07-13T07:50:36;4.38;;;2.00;;
8094;SDS011;4090;49.270;8.696;2023-07-13T07:53:19;2.90;;;1.70;;
8094;SDS011;4090;49.270;8.696;2023-07-13T07:56:01;2.97;;;1.77;;
8094;SDS011;4090;49.270;8.696;2023-07-13T07:58:42;3.78;;;1.63;;
8094;SDS011;4090;49.270;8.696;2023-07-13T08:01:24;4.18;;;1.90;;
8094;SDS011;4090;49.270;8.696;2023-07-13T08:04:06;3.28;;;1.67;;
8094;SDS011;4090;49.270;8.696;2023-07-13T08:06:50;3.40;;;1.80;;
8094;SDS011;4090;49.270;8.696;2023-07-13T08:09:32;2.20;;;1.40;;
8094;SDS011;4090;49.270;8.696;2023-07-13T08:12:14;3.40;;;1.63;;
8094;SDS011;4090;49.270;8.696;2023-07-13T08:14:56;4.15;;;1.60;;
8094;SDS011;4090;49.270;8.696;2023-07-13T08:17:38;2.63;;;1.55;;
8094;SDS011;4090;49.270;8.696;2023-07-13T08:20:20;3.10;;;1.50;;
8094;SDS011;4090;49.270;8.696;2023-07-13T08:23:03;4.28;;;1.67;;
8094;SDS011;4090;49.270;8.696;2023-07-13T08:25:50;2.83;;;1.40;;
8094;SDS011;4090;49.270;8.696;2023-07-13T08:28:33;3.72;;;1.50;;
8094;SDS011;4090;49.270;8.696;2023-07-13T08:31:15;4.60;;;1.60;;
8094;SDS011;4090;49.270;8.696;2023-07-13T08:33:56;3.55;;;1.67;;
8094;SDS011;4090;49.270;8.696;2023-07-13T08:36:38;3.05;;;1.70;;
8094;SDS011;4090;49.270;8.696;2023-07-13T08:39:22;2.55;;;1.25;;
8094;SDS011;4090;49.270;8.696;2023-07-13T08:42:11;1.98;;;1.50;;
8094;SDS011;4090;49.270;8.696;2023-07-13T08:44:56;3.40;;;1.58;;
8094;SDS011;4090;49.270;8.696;2023-07-13T08:47:50;3.55;;;1.50;;
8094;SDS011;4090;49.270;8.696;2023-07-13T08:50:35;1.85;;;1.23;;
8094;SDS011;4090;49.270;8.696;2023-07-13T08:53:24;3.28;;;1.83;;
8094;SDS011;4090;49.270;8.696;2023-07-13T08:56:21;3.70;;;1.45;;
8094;SDS011;4090;49.270;8.696;2023-07-13T08:59:09;2.20;;;1.40;;
8094;SDS011;4090;49.270;8.696;2023-07-13T09:01:59;2.70;;;1.40;;
8094;SDS011;4090;49.270;8.696;2023-07-13T09:05:03;3.67;;;1.60;;
8094;SDS011;4090;49.270;8.696;2023-07-13T09:07:58;2.75;;;1.50;;
8094;SDS011;4090;49.270;8.696;2023-07-13T09:10:49;1.65;;;1.27;;
8094;SDS011;4090;49.270;8.696;2023-07-13T09:13:37;4.80;;;1.88;;
8094;SDS011;4090;49.270;8.696;2023-07-13T09:16:24;6.88;;;1.90;;
8094;SDS011;4090;49.270;8.696;2023-07-13T09:19:07;5.85;;;1.70;;
8094;SDS011;4090;49.270;8.696;2023-07-13T09:21:55;2.88;;;1.42;;
8094;SDS011;4090;49.270;8.696;2023-07-13T09:24:50;3.38;;;1.70;;
8094;SDS011;4090;49.270;8.696;2023-07-13T09:27:36;5.57;;;1.65;;
8094;SDS011;4090;49.270;8.696;2023-07-13T09:30:24;5.22;;;1.70;;
8094;SDS011;4090;49.270;8.696;2023-07-13T09:33:14;4.38;;;1.67;;
8094;SDS011;4090;49.270;8.696;2023-07-13T09:35:56;2.42;;;1.30;;
8094;SDS011;4090;49.270;8.696;2023-07-13T09:38:39;2.38;;;1.48;;
8094;SDS011;4090;49.270;8.696;2023-07-13T09:41:23;3.85;;;1.67;;
8094;SDS011;4090;49.270;8.696;2023-07-13T09:44:13;3.35;;;1.70;;
8094;SDS011;4090;49.270;8.696;2023-07-13T09:46:58;5.40;;;1.88;;
8094;SDS011;4090;49.270;8.696;2023-07-13T09:49:39;3.95;;;1.63;;
8094;SDS011;4090;49.270;8.696;2023-07-13T09:52:24;5.05;;;1.48;;
8094;SDS011;4090;49.270;8.696;2023-07-13T09:55:17;2.88;;;1.45;;
8094;SDS011;4090;49.270;8.696;2023-07-13T09:58:08;2.65;;;1.50;;
8094;SDS011;4090;49.270;8.696;2023-07-13T10:00:54;3.30;;;1.60;;
8094;SDS011;4090;49.270;8.696;2023-07-13T10:03:39;5.15;;;1.67;;
8094;SDS011;4090;49.270;8.696;2023-07-13T10:06:32;3.95;;;1.80;;
8094;SDS011;4090;49.270;8.696;2023-07-13T10:09:17;6.15;;;1.85;;
8094;SDS011;4090;49.270;8.696;2023-07-13T10:11:59;4.00;;;1.42;;
8094;SDS011;4090;49.270;8.696;2023-07-13T10:14:42;3.80;;;1.60;;
8094;SDS011;4090;49.270;8.696;2023-07-13T10:17:25;2.75;;;1.30;;
8094;SDS011;4090;49.270;8.696;2023-07-13T10:20:12;3.45;;;1.25;;
8094;SDS011;4090;49.270;8.696;2023-07-13T10:22:56;3.50;;;1.65;;
8094;SDS011;4090;49.270;8.696;2023-07-13T10:25:42;1.98;;;1.60;;
8094;SDS011;4090;49.270;8.696;2023-07-13T10:28:29;5.13;;;1.95;;
8094;SDS011;4090;49.270;8.696;2023-07-13T10:31:14;6.45;;;2.50;;
8094;SDS011;4090;49.270;8.696;2023-07-13T10:33:57;4.78;;;1.80;;
8094;SDS011;4090;49.270;8.696;2023-07-13T10:36:40;4.38;;;1.88;;
8094;SDS011;4090;49.270;8.696;2023-07-13T10:39:25;3.40;;;1.90;;
8094;SDS011;4090;49.270;8.696;2023-07-13T10:42:10;2.67;;;1.58;;
8094;SDS011;4090;49.270;8.696;2023-07-13T10:44:55;2.00;;;1.60;;
8094;SDS011;4090;49.270;8.696;2023-07-13T10:47:37;4.43;;;1.60;;
8094;SDS011;4090;49.270;8.696;2023-07-13T10:50:21;2.67;;;1.75;;
8094;SDS011;4090;49.270;8.696;2023-07-13T10:53:17;2.85;;;1.70;;
8094;SDS011;4090;49.270;8.696;2023-07-13T10:56:01;7.10;;;1.73;;
8094;SDS011;4090;49.270;8.696;2023-07-13T10:58:46;5.25;;;1.60;;
8094;SDS011;4090;49.270;8.696;2023-07-13T11:01:28;3.85;;;1.35;;
8094;SDS011;4090;49.270;8.696;2023-07-13T11:04:21;2.67;;;1.65;;
8094;SDS011;4090;49.270;8.696;2023-07-13T11:07:10;4.82;;;1.52;;
8094;SDS011;4090;49.270;8.696;2023-07-13T11:10:03;4.10;;;1.83;;
8094;SDS011;4090;49.270;8.696;2023-07-13T11:12:50;5.78;;;1.65;;
8094;SDS011;4090;49.270;8.696;2023-07-13T11:15:43;3.47;;;1.63;;
8094;SDS011;4090;49.270;8.696;2023-07-13T11:18:28;2.40;;;1.48;;
8094;SDS011;4090;49.270;8.696;2023-07-13T11:21:15;1.50;;;1.40;;
8094;SDS011;4090;49.270;8.696;2023-07-13T11:24:02;1.63;;;1.30;;
8094;SDS011;4090;49.270;8.696;2023-07-13T11:26:51;5.55;;;1.55;;
8094;SDS011;4090;49.270;8.696;2023-07-13T11:29:36;3.63;;;1.75;;
8094;SDS011;4090;49.270;8.696;2023-07-13T11:32:21;2.80;;;1.40;;
8094;SDS011;4090;49.270;8.696;2023-07-13T11:35:08;2.50;;;1.60;;
8094;SDS011;4090;49.270;8.696;2023-07-13T11:37:55;5.55;;;1.42;;
8094;SDS011;4090;49.270;8.696;2023-07-13T11:40:36;3.25;;;1.77;;
8094;SDS011;4090;49.270;8.696;2023-07-13T11:43:21;4.03;;;1.30;;
8094;SDS011;4090;49.270;8.696;2023-07-13T11:46:14;3.67;;;2.03;;
8094;SDS011;4090;49.270;8.696;2023-07-13T11:48:57;3.85;;;1.60;;
8094;SDS011;4090;49.270;8.696;2023-07-13T11:51:39;2.33;;;1.35;;
8094;SDS011;4090;49.270;8.696;2023-07-13T11:54:25;2.50;;;1.60;;
8094;SDS011;4090;49.270;8.696;2023-07-13T11:57:13;3.92;;;1.35;;
8094;SDS011;4090;49.270;8.696;2023-07-13T12:00:10;3.33;;;1.60;;
8094;SDS011;4090;49.270;8.696;2023-07-13T12:02:56;2.85;;;1.45;;
8094;SDS011;4090;49.270;8.696;2023-07-13T12:05:54;1.85;;;1.48;;
8094;SDS011;4090;49.270;8.696;2023-07-13T12:08:38;1.77;;;1.30;;
8094;SDS011;4090;49.270;8.696;2023-07-13T12:11:20;2.72;;;1.20;;
8094;SDS011;4090;49.270;8.696;2023-07-13T12:14:02;1.88;;;1.30;;
8094;SDS011;4090;49.270;8.696;2023-07-13T12:16:46;2.15;;;1.30;;
8094;SDS011;4090;49.270;8.696;2023-07-13T12:19:29;2.83;;;1.30;;
8094;SDS011;4090;49.270;8.696;2023-07-13T12:22:11;4.10;;;1.50;;
8094;SDS011;4090;49.270;8.696;2023-07-13T12:24:54;2.20;;;1.42;;
8094;SDS011;4090;49.270;8.696;2023-07-13T12:27:37;4.63;;;1.58;;
8094;SDS011;4090;49.270;8.696;2023-07-13T12:30:26;1.80;;;1.40;;
8094;SDS011;4090;49.270;8.696;2023-07-13T12:33:12;2.72;;;1.33;;
8094;SDS011;4090;49.270;8.696;2023-07-13T12:35:55;2.67;;;1.55;;
8094;SDS011;4090;49.270;8.696;2023-07-13T12:38:38;2.92;;;1.50;;
8094;SDS011;4090;49.270;8.696;2023-07-13T12:41:20;3.03;;;1.38;;
8094;SDS011;4090;49.270;8.696;2023-07-13T12:44:03;3.22;;;1.35;;
8094;SDS011;4090;49.270;8.696;2023-07-13T12:46:53;2.03;;;1.65;;
8094;SDS011;4090;49.270;8.696;2023-07-13T12:49:41;2.25;;;1.27;;
8094;SDS011;4090;49.270;8.696;2023-07-13T12:52:32;2.60;;;1.50;;
8094;SDS011;4090;49.270;8.696;2023-07-13T12:55:17;2.60;;;1.50;;
8094;SDS011;4090;49.270;8.696;2023-07-13T12:58:02;2.92;;;1.40;;
8094;SDS011;4090;49.270;8.696;2023-07-13T13:00:48;2.88;;;1.52;;
8094;SDS011;4090;49.270;8.696;2023-07-13T13:03:33;1.52;;;1.20;;
8094;SDS011;4090;49.270;8.696;2023-07-13T13:06:25;4.38;;;1.55;;
8094;SDS011;4090;49.270;8.696;2023-07-13T13:09:09;3.85;;;1.42;;
8094;SDS011;4090;49.270;8.696;2023-07-13T13:11:53;2.83;;;1.35;;
8094;SDS011;4090;49.270;8.696;2023-07-13T13:14:35;2.42;;;1.20;;
8094;SDS011;4090;49.270;8.696;2023-07-13T13:17:18;3.35;;;1.52;;
8094;SDS011;4090;49.270;8.696;2023-07-13T13:20:01;2.03;;;1.30;;
8094;SDS011;4090;49.270;8.696;2023-07-13T13:22:47;5.70;;;1.42;;
8094;SDS011;4090;49.270;8.696;2023-07-13T13:25:29;1.83;;;1.38;;
8094;SDS011;4090;49.270;8.696;2023-07-13T13:28:15;3.92;;;1.50;;
8094;SDS011;4090;49.270;8.696;2023-07-13T13:30:58;2.22;;;1.33;;
8094;SDS011;4090;49.270;8.696;2023-07-13T13:33:41;3.40;;;1.45;;
8094;SDS011;4090;49.270;8.696;2023-07-13T13:36:25;1.45;;;1.30;;
8094;SDS011;4090;49.270;8.696;2023-07-13T13:39:18;4.20;;;1.70;;
8094;SDS011;4090;49.270;8.696;2023-07-13T13:42:01;4.75;;;1.50;;
8094;SDS011;4090;49.270;8.696;2023-07-13T13:44:44;3.00;;;1.50;;
8094;SDS011;4090;49.270;8.696;2023-07-13T13:47:28;3.25;;;1.58;;
8094;SDS011;4090;49.270;8.696;2023-07-13T13:50:13;4.25;;;1.60;;
8094;SDS011;4090;49.270;8.696;2023-07-13T13:52:58;3.97;;;1.75;;
8094;SDS011;4090;49.270;8.696;2023-07-13T13:55:42;3.17;;;1.45;;
8094;SDS011;4090;49.270;8.696;2023-07-13T13:58:24;2.65;;;1.30;;
8094;SDS011;4090;49.270;8.696;2023-07-13T14:01:10;5.45;;;1.60;;
8094;SDS011;4090;49.270;8.696;2023-07-13T14:03:54;8.32;;;1.60;;
8094;SDS011;4090;49.270;8.696;2023-07-13T14:06:36;2.47;;;1.30;;
8094;SDS011;4090;49.270;8.696;2023-07-13T14:09:18;2.05;;;1.20;;
8094;SDS011;4090;49.270;8.696;2023-07-13T14:12:03;2.03;;;1.30;;
8094;SDS011;4090;49.270;8.696;2023-07-13T14:14:47;2.75;;;1.38;;
8094;SDS011;4090;49.270;8.696;2023-07-13T14:17:30;2.58;;;1.33;;
8094;SDS011;4090;49.270;8.696;2023-07-13T14:20:13;2.35;;;1.50;;
8094;SDS011;4090;49.270;8.696;2023-07-13T14:22:55;2.72;;;1.35;;
8094;SDS011;4090;49.270;8.696;2023-07-13T14:25:37;2.20;;;1.50;;
8094;SDS011;4090;49.270;8.696;2023-07-13T14:28:21;1.40;;;1.30;;
8094;SDS011;4090;49.270;8.696;2023-07-13T14:31:05;3.72;;;1.40;;
8094;SDS011;4090;49.270;8.696;2023-07-13T14:33:47;3.20;;;1.70;;
8094;SDS011;4090;49.270;8.696;2023-07-13T14:36:31;4.05;;;1.50;;
8094;SDS011;4090;49.270;8.696;2023-07-13T14:39:15;2.22;;;1.38;;
8094;SDS011;4090;49.270;8.696;2023-07-13T14:41:58;2.33;;;1.40;;
8094;SDS011;4090;49.270;8.696;2023-07-13T14:44:41;3.08;;;1.60;;
8094;SDS011;4090;49.270;8.696;2023-07-13T14:47:23;1.52;;;1.27;;
8094;SDS011;4090;49.270;8.696;2023-07-13T14:50:07;3.20;;;1.58;;
8094;SDS011;4090;49.270;8.696;2023-07-13T14:52:55;2.03;;;1.50;;
8094;SDS011;4090;49.270;8.696;2023-07-13T14:55:38;5.30;;;1.55;;
8094;SDS011;4090;49.270;8.696;2023-07-13T14:58:20;1.52;;;1.20;;
8094;SDS011;4090;49.270;8.696;2023-07-13T15:01:04;1.65;;;1.25;;
8094;SDS011;4090;49.270;8.696;2023-07-13T15:03:47;2.05;;;1.48;;
8094;SDS011;4090;49.270;8.696;2023-07-13T15:06:30;5.22;;;1.25;;
8094;SDS011;4090;49.270;8.696;2023-07-13T15:09:12;2.88;;;1.63;;
8094;SDS011;4090;49.270;8.696;2023-07-13T15:11:54;4.70;;;1.60;;
8094;SDS011;4090;49.270;8.696;2023-07-13T15:14:37;1.98;;;1.40;;
8094;SDS011;4090;49.270;8.696;2023-07-13T15:17:23;2.55;;;1.40;;
8094;SDS011;4090;49.270;8.696;2023-07-13T15:20:19;2.90;;;1.20;;
8094;SDS011;4090;49.270;8.696;2023-07-13T15:23:05;6.35;;;2.03;;
8094;SDS011;4090;49.270;8.696;2023-07-13T15:25:47;2.03;;;1.38;;
8094;SDS011;4090;49.270;8.696;2023-07-13T15:28:29;3.22;;;1.40;;
8094;SDS011;4090;49.270;8.696;2023-07-13T15:31:16;3.53;;;1.45;;
8094;SDS011;4090;49.270;8.696;2023-07-13T15:34:04;1.88;;;1.48;;
8094;SDS011;4090;49.270;8.696;2023-07-13T15:36:52;2.08;;;1.48;;
8094;SDS011;4090;49.270;8.696;2023-07-13T15:39:34;5.07;;;1.60;;
8094;SDS011;4090;49.270;8.696;2023-07-13T15:42:18;3.58;;;1.58;;
8094;SDS011;4090;49.270;8.696;2023-07-13T15:45:01;2.92;;;1.50;;
8094;SDS011;4090;49.270;8.696;2023-07-13T15:47:43;2.97;;;1.70;;
8094;SDS011;4090;49.270;8.696;2023-07-13T15:50:29;2.28;;;1.55;;
8094;SDS011;4090;49.270;8.696;2023-07-13T15:53:24;3.78;;;1.60;;
8094;SDS011;4090;49.270;8.696;2023-07-13T15:56:17;3.65;;;1.77;;
8094;SDS011;4090;49.270;8.696;2023-07-13T15:59:02;2.33;;;1.33;;
8094;SDS011;4090;49.270;8.696;2023-07-13T16:01:44;2.30;;;1.55;;
8094;SDS011;4090;49.270;8.696;2023-07-13T16:04:26;2.22;;;1.40;;
8094;SDS011;4090;49.270;8.696;2023-07-13T16:07:10;3.30;;;1.55;;
8094;SDS011;4090;49.270;8.696;2023-07-13T16:09:53;4.43;;;1.65;;
8094;SDS011;4090;49.270;8.696;2023-07-13T16:12:35;3.03;;;1.60;;
8094;SDS011;4090;49.270;8.696;2023-07-13T16:15:18;3.58;;;1.50;;
8094;SDS011;4090;49.270;8.696;2023-07-13T16:18:01;2.55;;;1.70;;
8094;SDS011;4090;49.270;8.696;2023-07-13T16:20:45;2.58;;;1.50;;
8094;SDS011;4090;49.270;8.696;2023-07-13T16:23:29;5.07;;;1.58;;
8094;SDS011;4090;49.270;8.696;2023-07-13T16:29:20;1.85;;;1.40;;
8094;SDS011;4090;49.270;8.696;2023-07-13T16:32:04;3.05;;;1.48;;
8094;SDS011;4090;49.270;8.696;2023-07-13T16:34:47;3.00;;;1.48;;
8094;SDS011;4090;49.270;8.696;2023-07-13T16:37:29;1.65;;;1.30;;
8094;SDS011;4090;49.270;8.696;2023-07-13T16:40:18;1.90;;;1.30;;
8094;SDS011;4090;49.270;8.696;2023-07-13T16:43:03;3.67;;;1.30;;
8094;SDS011;4090;49.270;8.696;2023-07-13T16:45:48;2.53;;;1.50;;
8094;SDS011;4090;49.270;8.696;2023-07-13T16:48:31;2.55;;;1.33;;
8094;SDS011;4090;49.270;8.696;2023-07-13T16:51:13;3.15;;;1.77;;
8094;SDS011;4090;49.270;8.696;2023-07-13T16:53:55;3.35;;;1.40;;
8094;SDS011;4090;49.270;8.696;2023-07-13T16:56:39;1.88;;;1.30;;
8094;SDS011;4090;49.270;8.696;2023-07-13T16:59:21;1.40;;;1.20;;
8094;SDS011;4090;49.270;8.696;2023-07-13T17:05:16;3.38;;;1.50;;
8094;SDS011;4090;49.270;8.696;2023-07-13T17:07:59;3.20;;;1.50;;
8094;SDS011;4090;49.270;8.696;2023-07-13T17:10:42;3.35;;;1.40;;
8094;SDS011;4090;49.270;8.696;2023-07-13T17:13:26;1.73;;;1.27;;
8094;SDS011;4090;49.270;8.696;2023-07-13T17:16:09;3.40;;;1.80;;